| time (UTC) | temp F | wind direction | speed MPH | gust MPH | rain 1hr in | rain 24hr in | rain mn in | humidity % | barometer mb |
| 20260505171217 | 60 | 265 | 2.0 | 9.0 | 0.00 | 0.00 | 0.00 | 37 | |
| 20260505170717 | 59 | 310 | 9.0 | 11.0 | 0.00 | 0.00 | 0.00 | 38 | |
| 20260505170217 | 58 | 317 | 7.0 | 14.0 | 0.00 | 0.00 | 0.00 | 38 | |
| 20260505165717 | 59 | 340 | 10.0 | 11.0 | 0.00 | 0.00 | 0.00 | 38 | |
| 20260505165217 | 57 | 293 | 5.0 | 10.0 | 0.00 | 0.00 | 0.00 | 40 | |
| 20260505164717 | 56 | 310 | 8.0 | 8.0 | 0.00 | 0.00 | 0.00 | 41 | |
| 20260505164217 | 57 | 108 | 3.0 | 6.0 | 0.00 | 0.00 | 0.00 | 40 | |
| 20260505163717 | 57 | 215 | 2.0 | 5.0 | 0.00 | 0.00 | 0.00 | 40 | |
| 20260505163217 | 57 | 303 | 3.0 | 8.0 | 0.00 | 0.00 | 0.00 | 39 | |
| 20260505162717 | 57 | 137 | 3.0 | 5.0 | 0.00 | 0.00 | 0.00 | 39 | |
| 20260505162217 | 57 | 234 | 3.0 | 5.0 | 0.00 | 0.00 | 0.00 | 40 | |
| 20260505161717 | 56 | 338 | 3.0 | 11.0 | 0.00 | 0.00 | 0.00 | 39 | |
| 20260505161217 | 57 | 284 | 3.0 | 8.0 | 0.00 | 0.00 | 0.00 | 39 | |
| 20260505160717 | 57 | 160 | 2.0 | 11.0 | 0.00 | 0.00 | 0.00 | 39 | |
| 20260505160217 | 57 | 319 | 4.0 | 9.0 | 0.00 | 0.00 | 0.00 | 39 | |
| 20260505153217 | 57 | 316 | 8.0 | 9.0 | 0.00 | 0.00 | 0.00 | 36 | |
| 20260505152717 | 57 | 36 | 3.0 | 7.0 | 0.00 | 0.00 | 0.00 | 38 | |
| 20260505152217 | 56 | 254 | 5.0 | 8.0 | 0.00 | 0.00 | 0.00 | 39 | |
| 20260505151717 | 56 | 333 | 2.0 | 9.0 | 0.00 | 0.00 | 0.00 | 38 | |
| 20260505151217 | 56 | 219 | 4.0 | 8.0 | 0.00 | 0.00 | 0.00 | 37 | |
| 20260505150717 | 56 | 357 | 7.0 | 9.0 | 0.00 | 0.00 | 0.00 | 37 | |
| 20260505150217 | 55 | 324 | 5.0 | 10.0 | 0.00 | 0.00 | 0.00 | 36 | |
| 20260505140217 | 54 | 74 | 1.0 | 2.0 | 0.00 | 0.00 | 0.00 | 37 | |
| 20260505130217 | 43 | 265 | 2.0 | 5.0 | 0.00 | 0.00 | 0.00 | 60 | |
| 20260505124717 | 43 | 247 | 0.0 | 3.0 | 0.00 | 0.00 | 0.00 | 57 | |
| 20260505124217 | 43 | 299 | 2.0 | 3.0 | 0.00 | 0.00 | 0.00 | 60 | |
| 20260505123717 | 44 | 165 | 1.0 | 3.0 | 0.00 | 0.00 | 0.00 | 57 | |
| 20260505123217 | 44 | 354 | 2.0 | 3.0 | 0.00 | 0.00 | 0.00 | 58 | |
| 20260505122717 | 45 | 247 | 0.0 | 2.0 | 0.00 | 0.00 | 0.00 | 54 | |
| 20260505122217 | 45 | 291 | 1.0 | 5.0 | 0.00 | 0.00 | 0.00 | 55 | |
| 20260505121717 | 45 | 309 | 1.0 | 1.0 | 0.00 | 0.00 | 0.00 | 57 | |
| 20260505121217 | 45 | 296 | 1.0 | 5.0 | 0.00 | 0.00 | 0.00 | 54 | |
| 20260505120717 | 46 | 260 | 0.0 | 0.0 | 0.00 | 0.00 | 0.00 | 54 | |
| 20260505120217 | 46 | 260 | 0.0 | 0.0 | 0.00 | 0.00 | 0.00 | 54 | |
| 20260505115717 | 46 | 260 | 0.0 | 4.0 | 0.00 | 0.00 | 0.00 | 55 | |
| 20260505115217 | 46 | 236 | 2.0 | 6.0 | 0.00 | 0.00 | 0.00 | 47 | |
| 20260505114717 | 45 | 306 | 3.0 | 3.0 | 0.00 | 0.00 | 0.00 | 55 | |
| 20260505114217 | 46 | 295 | 1.0 | 2.0 | 0.00 | 0.00 | 0.00 | 53 | |
| 20260505113717 | 46 | 307 | 0.0 | 2.0 | 0.00 | 0.00 | 0.00 | 52 | |
| 20260505113217 | 46 | 247 | 0.0 | 2.0 | 0.00 | 0.00 | 0.00 | 52 | |
| 20260505112717 | 46 | 293 | 1.0 | 4.0 | 0.00 | 0.00 | 0.00 | 51 | |
| 20260505112217 | 46 | 312 | 0.0 | 0.0 | 0.00 | 0.00 | 0.00 | 51 | |
| 20260505111717 | 47 | 341 | 0.0 | 1.0 | 0.00 | 0.00 | 0.00 | 50 | |
| 20260505111217 | 47 | 307 | 1.0 | 3.0 | 0.00 | 0.00 | 0.00 | 49 | |
| 20260505110717 | 48 | 357 | 2.0 | 2.0 | 0.00 | 0.00 | 0.00 | 48 | |
| 20260505110217 | 48 | 319 | 1.0 | 5.0 | 0.00 | 0.00 | 0.00 | 47 | |
| 20260505102217 | 52 | 289 | 2.0 | 2.0 | 0.00 | 0.00 | 0.00 | 39 | |
| 20260505101717 | 53 | 123 | 0.0 | 1.0 | 0.00 | 0.00 | 0.00 | 38 | |
| 20260505101217 | 53 | 174 | 0.0 | 7.0 | 0.00 | 0.00 | 0.00 | 37 | |
| 20260505100717 | 53 | 324 | 7.0 | 12.0 | 0.00 | 0.00 | 0.00 | 37 | |
| 20260505100217 | 53 | 71 | 1.0 | 5.0 | 0.00 | 0.00 | 0.00 | 39 | |
| 20260505095717 | 54 | 347 | 3.0 | 4.0 | 0.00 | 0.00 | 0.00 | 37 | |
| 20260505095217 | 54 | 133 | 2.0 | 8.0 | 0.00 | 0.00 | 0.00 | 35 | |
| 20260505094717 | 55 | 299 | 1.0 | 7.0 | 0.00 | 0.00 | 0.00 | 35 | |
| 20260505094217 | 55 | 154 | 2.0 | 5.0 | 0.00 | 0.00 | 0.00 | 34 | |
| 20260505093717 | 56 | 70 | 3.0 | 10.0 | 0.00 | 0.00 | 0.00 | 33 | |
| 20260505093217 | 55 | 19 | 5.0 | 8.0 | 0.00 | 0.00 | 0.00 | 33 | |
| 20260505092717 | 56 | 261 | 5.0 | 9.0 | 0.00 | 0.00 | 0.00 | 33 | |
| 20260505092217 | 56 | 233 | 3.0 | 12.0 | 0.00 | 0.00 | 0.00 | 33 | |
| 20260505091717 | 56 | 40 | 4.0 | 7.0 | 0.00 | 0.00 | 0.00 | 33 | |
| 20260505091217 | 56 | 352 | 4.0 | 12.0 | 0.00 | 0.00 | 0.00 | 32 | |
| 20260505090717 | 56 | 43 | 2.0 | 7.0 | 0.00 | 0.00 | 0.00 | 32 | |
| 20260505090217 | 56 | 43 | 4.0 | 11.0 | 0.00 | 0.00 | 0.00 | 32 | |
| 20260505085717 | 56 | 28 | 7.0 | 19.0 | 0.00 | 0.00 | 0.00 | 32 | |
| 20260505085217 | 56 | 29 | 8.0 | 15.0 | 0.00 | 0.00 | 0.00 | 32 | |
| 20260505084717 | 57 | 88 | 4.0 | 20.0 | 0.00 | 0.00 | 0.00 | 32 | |
| 20260505084217 | 57 | 326 | 6.0 | 19.0 | 0.00 | 0.00 | 0.00 | 31 | |
| 20260505083717 | 57 | 327 | 6.0 | 17.0 | 0.00 | 0.00 | 0.00 | 31 | |
| 20260505083217 | 57 | 16 | 3.0 | 10.0 | 0.00 | 0.00 | 0.00 | 31 | |
| 20260505082717 | 58 | 118 | 0.0 | 12.0 | 0.00 | 0.00 | 0.00 | 31 | |
| 20260505082218 | 57 | 337 | 11.0 | 15.0 | 0.00 | 0.00 | 0.00 | 31 | |
| 20260505081718 | 57 | 292 | 8.0 | 14.0 | 0.00 | 0.00 | 0.00 | 31 | |
| 20260505081218 | 57 | 285 | 4.0 | 11.0 | 0.00 | 0.00 | 0.00 | 31 | |
| 20260505080718 | 57 | 345 | 5.0 | 10.0 | 0.00 | 0.00 | 0.00 | 32 | |
| 20260505080218 | 57 | 326 | 3.0 | 16.0 | 0.00 | 0.00 | 0.00 | 32 | |
| 20260505075718 | 57 | 300 | 6.0 | 8.0 | 0.00 | 0.00 | 0.00 | 32 | |
| 20260505075218 | 57 | 324 | 3.0 | 11.0 | 0.00 | 0.00 | 0.00 | 32 | |
| 20260505074718 | 57 | 319 | 4.0 | 16.0 | 0.00 | 0.00 | 0.00 | 32 | |
| 20260505074218 | 57 | 319 | 6.0 | 15.0 | 0.00 | 0.00 | 0.00 | 32 | |
| 20260505073718 | 57 | 250 | 6.0 | 14.0 | 0.00 | 0.00 | 0.00 | 33 | |
| 20260505073218 | 58 | 303 | 9.0 | 16.0 | 0.00 | 0.00 | 0.00 | 32 | |
| 20260505072718 | 57 | 326 | 4.0 | 19.0 | 0.00 | 0.00 | 0.00 | 33 | |
| 20260505072218 | 57 | 191 | 2.0 | 12.0 | 0.00 | 0.00 | 0.00 | 33 | |
| 20260505071718 | 58 | 12 | 3.0 | 10.0 | 0.00 | 0.00 | 0.00 | 33 | |
| 20260505071218 | 58 | 340 | 10.0 | 11.0 | 0.00 | 0.00 | 0.00 | 32 | |
| 20260505070718 | 58 | 345 | 2.0 | 18.0 | 0.00 | 0.00 | 0.00 | 33 | |
| 20260505070218 | 57 | 322 | 9.0 | 23.0 | 0.00 | 0.00 | 0.00 | 32 | |
| 20260505065718 | 58 | 322 | 11.0 | 13.0 | 0.00 | 0.00 | 0.00 | 33 | |
| 20260505065218 | 58 | 347 | 2.0 | 23.0 | 0.00 | 0.00 | 0.00 | 33 | |
| 20260505064718 | 58 | 323 | 7.0 | 9.0 | 0.00 | 0.00 | 0.00 | 33 | |
| 20260505064218 | 58 | 338 | 8.0 | 12.0 | 0.00 | 0.00 | 0.00 | 33 | |
| 20260505063718 | 58 | 57 | 1.0 | 10.0 | 0.00 | 0.00 | 0.00 | 33 | |
| 20260505063218 | 58 | 324 | 5.0 | 16.0 | 0.00 | 0.00 | 0.00 | 33 | |
| 20260505062718 | 58 | 288 | 2.0 | 13.0 | 0.00 | 0.00 | 0.00 | 33 | |
| 20260505062218 | 58 | 299 | 6.0 | 16.0 | 0.00 | 0.00 | 0.00 | 33 | |
| 20260505061718 | 58 | 343 | 3.0 | 14.0 | 0.00 | 0.00 | 0.00 | 32 | |
| 20260505061218 | 58 | 292 | 7.0 | 18.0 | 0.00 | 0.00 | 0.00 | 33 | |
| 20260505060718 | 59 | 327 | 6.0 | 14.0 | 0.00 | 0.00 | 0.00 | 32 | |
| 20260505060218 | 59 | 300 | 2.0 | 20.0 | 0.00 | 0.00 | 0.00 | 32 | |
| 20260505055718 | 59 | 326 | 8.0 | 19.0 | 0.00 | 0.00 | 0.00 | 32 | |
| 20260505055218 | 59 | 309 | 6.0 | 15.0 | 0.00 | 0.00 | 0.00 | 32 | |
| 20260505054718 | 59 | 293 | 8.0 | 14.0 | 0.00 | 0.00 | 0.00 | 32 | |
| 20260505054218 | 59 | 305 | 7.0 | 15.0 | 0.00 | 0.00 | 0.00 | 33 | |
| 20260505053718 | 59 | 296 | 7.0 | 16.0 | 0.00 | 0.00 | 0.00 | 32 | |
| 20260505053218 | 59 | 313 | 12.0 | 23.0 | 0.00 | 0.00 | 0.00 | 32 | |
| 20260505052718 | 59 | 317 | 4.0 | 16.0 | 0.00 | 0.00 | 0.00 | 32 | |
| 20260505052218 | 59 | 302 | 6.0 | 15.0 | 0.00 | 0.00 | 0.00 | 32 | |
| 20260505051718 | 59 | 322 | 1.0 | 17.0 | 0.00 | 0.00 | 0.00 | 32 | |
| 20260505051218 | 59 | 322 | 9.0 | 22.0 | 0.00 | 0.00 | 0.00 | 32 | |
| 20260505050718 | 59 | 18 | 5.0 | 25.0 | 0.00 | 0.00 | 0.00 | 32 | |
| 20260505050218 | 59 | 292 | 3.0 | 15.0 | 0.00 | 0.00 | 0.00 | 32 | |
| 20260505041718 | 60 | 343 | 4.0 | 17.0 | 0.00 | 0.00 | 0.00 | 28 | |
| 20260505041218 | 60 | 4 | 13.0 | 23.0 | 0.00 | 0.00 | 0.00 | 28 | |
| 20260505040718 | 60 | 307 | 8.0 | 20.0 | 0.00 | 0.00 | 0.00 | 27 | |
| 20260505040218 | 60 | 326 | 8.0 | 18.0 | 0.00 | 0.00 | 0.00 | 26 | |
| 20260505035718 | 60 | 320 | 5.0 | 28.0 | 0.00 | 0.00 | 0.00 | 26 | |
| 20260505035218 | 60 | 320 | 12.0 | 20.0 | 0.00 | 0.00 | 0.00 | 26 | |
| 20260505034718 | 60 | 270 | 8.0 | 15.0 | 0.00 | 0.00 | 0.00 | 25 | |
| 20260505034218 | 60 | 243 | 2.0 | 22.0 | 0.00 | 0.00 | 0.00 | 25 | |
| 20260505033718 | 60 | 279 | 5.0 | 20.0 | 0.00 | 0.00 | 0.00 | 25 | |
| 20260505033218 | 60 | 296 | 11.0 | 24.0 | 0.00 | 0.00 | 0.00 | 24 | |
| 20260505032718 | 60 | 337 | 6.0 | 20.0 | 0.00 | 0.00 | 0.00 | 24 | |
| 20260505032218 | 60 | 352 | 5.0 | 13.0 | 0.00 | 0.00 | 0.00 | 24 | |
| 20260505031718 | 61 | 312 | 12.0 | 13.0 | 0.00 | 0.00 | 0.00 | 23 | |
| 20260505031218 | 61 | 306 | 7.0 | 18.0 | 0.00 | 0.00 | 0.00 | 23 | |
| 20260505030718 | 61 | 277 | 5.0 | 19.0 | 0.00 | 0.00 | 0.00 | 22 | |
| 20260505030218 | 61 | 333 | 2.0 | 13.0 | 0.00 | 0.00 | 0.00 | 22 | |
| 20260505025718 | 61 | 284 | 4.0 | 10.0 | 0.00 | 0.00 | 0.00 | 22 | |
| 20260505025218 | 61 | 315 | 9.0 | 15.0 | 0.00 | 0.00 | 0.00 | 22 | |
| 20260505024718 | 61 | 295 | 7.0 | 19.0 | 0.00 | 0.00 | 0.00 | 22 | |
| 20260505024218 | 61 | 322 | 3.0 | 12.0 | 0.00 | 0.00 | 0.00 | 21 | |
| 20260505023718 | 62 | 326 | 3.0 | 18.0 | 0.00 | 0.00 | 0.00 | 21 | |
| 20260505023218 | 62 | 264 | 3.0 | 13.0 | 0.00 | 0.00 | 0.00 | 22 | |
| 20260505022718 | 62 | 323 | 3.0 | 26.0 | 0.00 | 0.00 | 0.00 | 21 | |
| 20260505022218 | 62 | 327 | 7.0 | 13.0 | 0.00 | 0.00 | 0.00 | 21 | |
| 20260505021718 | 62 | 317 | 6.0 | 17.0 | 0.00 | 0.00 | 0.00 | 21 | |
| 20260505021218 | 62 | 322 | 16.0 | 16.0 | 0.00 | 0.00 | 0.00 | 20 | |
| 20260505020718 | 62 | 310 | 2.0 | 20.0 | 0.00 | 0.00 | 0.00 | 20 | |
| 20260505020218 | 62 | 113 | 9.0 | 12.0 | 0.00 | 0.00 | 0.00 | 20 | |
| 20260505015718 | 62 | 338 | 2.0 | 11.0 | 0.00 | 0.00 | 0.00 | 20 | |
| 20260505015218 | 62 | 289 | 5.0 | 11.0 | 0.00 | 0.00 | 0.00 | 19 | |
| 20260505014718 | 63 | 125 | 1.0 | 13.0 | 0.00 | 0.00 | 0.00 | 20 | |
| 20260505014218 | 63 | 322 | 7.0 | 12.0 | 0.00 | 0.00 | 0.00 | 19 | |
| 20260505013718 | 63 | 327 | 8.0 | 16.0 | 0.00 | 0.00 | 0.00 | 20 | |
| 20260505013218 | 63 | 282 | 2.0 | 15.0 | 0.00 | 0.00 | 0.00 | 20 | |
| 20260505012718 | 63 | 298 | 5.0 | 22.0 | 0.00 | 0.00 | 0.00 | 19 | |
| 20260505012218 | 63 | 305 | 8.0 | 19.0 | 0.00 | 0.00 | 0.00 | 19 | |
| 20260505011718 | 63 | 358 | 6.0 | 22.0 | 0.00 | 0.00 | 0.00 | 19 | |
| 20260505011218 | 63 | 309 | 2.0 | 13.0 | 0.00 | 0.00 | 0.00 | 19 | |
| 20260505010718 | 64 | 28 | 8.0 | 18.0 | 0.00 | 0.00 | 0.00 | 19 | |
| 20260505010218 | 63 | 2 | 2.0 | 11.0 | 0.00 | 0.00 | 0.00 | 20 | |
| 20260505005718 | 64 | 324 | 5.0 | 12.0 | 0.00 | 0.00 | 0.00 | 20 | |
| 20260505005218 | 64 | 331 | 5.0 | 12.0 | 0.00 | 0.00 | 0.00 | 20 | |
| 20260505004718 | 64 | 313 | 6.0 | 11.0 | 0.00 | 0.00 | 0.00 | 20 | |
| 20260505004218 | 64 | 357 | 5.0 | 18.0 | 0.00 | 0.00 | 0.00 | 20 | |
| 20260505003718 | 64 | 315 | 4.0 | 12.0 | 0.00 | 0.00 | 0.00 | 21 | |
| 20260505003218 | 64 | 260 | 3.0 | 21.0 | 0.00 | 0.00 | 0.00 | 20 | |
| 20260505002718 | 64 | 313 | 12.0 | 24.0 | 0.00 | 0.00 | 0.00 | 20 | |
| 20260505002218 | 64 | 329 | 4.0 | 20.0 | 0.00 | 0.00 | 0.00 | 20 | |
| 20260505001718 | 64 | 258 | 4.0 | 12.0 | 0.00 | 0.00 | 0.00 | 21 | |
| 20260505001218 | 64 | 274 | 12.0 | 19.0 | 0.00 | 0.00 | 0.00 | 20 | |
| 20260505000718 | 64 | 274 | 7.0 | 18.0 | 0.00 | 0.00 | 0.00 | 20 | |
| 20260505000219 | 64 | 23 | 7.0 | 19.0 | 0.00 | 0.00 | 0.00 | 21 | |
| 20260504235718 | 64 | 329 | 9.0 | 23.0 | 0.00 | 0.00 | 0.00 | 20 | |
| 20260504235218 | 65 | 315 | 8.0 | 22.0 | 0.00 | 0.00 | 0.00 | 20 | |
| 20260504234718 | 64 | 312 | 14.0 | 22.0 | 0.00 | 0.00 | 0.00 | 19 | |
| 20260504234218 | 65 | 288 | 1.0 | 15.0 | 0.00 | 0.00 | 0.00 | 19 | |
| 20260504233718 | 65 | 1 | 9.0 | 14.0 | 0.00 | 0.00 | 0.00 | 19 | |
| 20260504233218 | 65 | 319 | 6.0 | 17.0 | 0.00 | 0.00 | 0.00 | 19 | |
| 20260504232718 | 65 | 254 | 5.0 | 11.0 | 0.00 | 0.00 | 0.00 | 18 | |
| 20260504232218 | 65 | 281 | 6.0 | 20.0 | 0.00 | 0.00 | 0.00 | 18 | |
| 20260504231718 | 66 | 241 | 4.0 | 16.0 | 0.00 | 0.00 | 0.00 | 19 | |
| 20260504231218 | 65 | 322 | 6.0 | 26.0 | 0.00 | 0.00 | 0.00 | 18 | |
| 20260504230718 | 65 | 296 | 11.0 | 24.0 | 0.00 | 0.00 | 0.00 | 18 | |
| 20260504230218 | 65 | 281 | 7.0 | 17.0 | 0.00 | 0.00 | 0.00 | 17 | |
| 20260504225718 | 65 | 196 | 2.0 | 17.0 | 0.00 | 0.00 | 0.00 | 16 | |
| 20260504225218 | 65 | 323 | 9.0 | 18.0 | 0.00 | 0.00 | 0.00 | 15 | |
| 20260504224718 | 66 | 206 | 0.0 | 15.0 | 0.00 | 0.00 | 0.00 | 16 | |
| 20260504224218 | 66 | 298 | 1.0 | 15.0 | 0.00 | 0.00 | 0.00 | 16 | |
| 20260504223718 | 66 | 118 | 2.0 | 27.0 | 0.00 | 0.00 | 0.00 | 15 | |
| 20260504223218 | 67 | 87 | 2.0 | 9.0 | 0.00 | 0.00 | 0.00 | 14 | |
| 20260504222718 | 67 | 313 | 4.0 | 18.0 | 0.00 | 0.00 | 0.00 | 15 | |
| 20260504222218 | 67 | 199 | 3.0 | 16.0 | 0.00 | 0.00 | 0.00 | 14 | |
| 20260504221718 | 66 | 303 | 10.0 | 20.0 | 0.00 | 0.00 | 0.00 | 13 | |
| 20260504221218 | 67 | 338 | 8.0 | 25.0 | 0.00 | 0.00 | 0.00 | 14 | |
| 20260504220718 | 67 | 22 | 5.0 | 18.0 | 0.00 | 0.00 | 0.00 | 14 | |
| 20260504220218 | 66 | 298 | 4.0 | 23.0 | 0.00 | 0.00 | 0.00 | 14 | |
| 20260504215719 | 66 | 347 | 12.0 | 23.0 | 0.00 | 0.00 | 0.00 | 15 | |
| 20260504215218 | 66 | 274 | 12.0 | 25.0 | 0.00 | 0.00 | 0.00 | 15 | |
| 20260504214719 | 68 | 274 | 6.0 | 16.0 | 0.00 | 0.00 | 0.00 | 15 | |
| 20260504214218 | 67 | 291 | 5.0 | 20.0 | 0.00 | 0.00 | 0.00 | 16 | |
| 20260504213719 | 66 | 305 | 13.0 | 37.0 | 0.00 | 0.00 | 0.00 | 16 | |
| 20260504213219 | 66 | 316 | 19.0 | 26.0 | 0.00 | 0.00 | 0.00 | 15 | |
| 20260504212719 | 67 | 274 | 10.0 | 26.0 | 0.00 | 0.00 | 0.00 | 16 | |
| 20260504212219 | 67 | 310 | 10.0 | 29.0 | 0.00 | 0.00 | 0.00 | 16 | |
| 20260504211719 | 67 | 234 | 6.0 | 19.0 | 0.00 | 0.00 | 0.00 | 16 | |
| 20260504211219 | 66 | 299 | 12.0 | 24.0 | 0.00 | 0.00 | 0.00 | 16 | |
| 20260504210719 | 67 | 317 | 11.0 | 27.0 | 0.00 | 0.00 | 0.00 | 16 | |
| 20260504210219 | 68 | 272 | 6.0 | 24.0 | 0.00 | 0.00 | 0.00 | 16 | |
| 20260504205719 | 68 | 306 | 13.0 | 23.0 | 0.00 | 0.00 | 0.00 | 15 | |
| 20260504205219 | 67 | 310 | 16.0 | 29.0 | 0.00 | 0.00 | 0.00 | 16 | |
| 20260504204719 | 67 | 316 | 12.0 | 27.0 | 0.00 | 0.00 | 0.00 | 16 | |
| 20260504204219 | 68 | 358 | 9.0 | 24.0 | 0.00 | 0.00 | 0.00 | 16 | |
| 20260504203719 | 67 | 295 | 10.0 | 23.0 | 0.00 | 0.00 | 0.00 | 17 | |
| 20260504203219 | 67 | 313 | 17.0 | 26.0 | 0.00 | 0.00 | 0.00 | 17 | |
| 20260504202719 | 67 | 316 | 14.0 | 21.0 | 0.00 | 0.00 | 0.00 | 17 | |
| 20260504202219 | 68 | 278 | 4.0 | 24.0 | 0.00 | 0.00 | 0.00 | 16 | |
| 20260504201719 | 68 | 296 | 12.0 | 24.0 | 0.00 | 0.00 | 0.00 | 17 | |
| 20260504201219 | 68 | 265 | 6.0 | 19.0 | 0.00 | 0.00 | 0.00 | 17 | |
| 20260504200719 | 67 | 312 | 15.0 | 21.0 | 0.00 | 0.00 | 0.00 | 18 | |
| 20260504200219 | 67 | 310 | 10.0 | 21.0 | 0.00 | 0.00 | 0.00 | 18 | |
| 20260504195719 | 67 | 241 | 7.0 | 39.0 | 0.00 | 0.00 | 0.00 | 17 | |
| 20260504195219 | 67 | 272 | 8.0 | 28.0 | 0.00 | 0.00 | 0.00 | 16 | |
| 20260504194719 | 68 | 247 | 5.0 | 19.0 | 0.00 | 0.00 | 0.00 | 16 | |
| 20260504194219 | 68 | 340 | 9.0 | 21.0 | 0.00 | 0.00 | 0.00 | 16 | |
| 20260504193719 | 67 | 329 | 11.0 | 35.0 | 0.00 | 0.00 | 0.00 | 17 | |
| 20260504193219 | 67 | 319 | 17.0 | 25.0 | 0.00 | 0.00 | 0.00 | 16 | |
| 20260504192719 | 68 | 286 | 9.0 | 25.0 | 0.00 | 0.00 | 0.00 | 17 | |
| 20260504192219 | 67 | 320 | 17.0 | 26.0 | 0.00 | 0.00 | 0.00 | 18 | |
| 20260504191719 | 67 | 32 | 5.0 | 28.0 | 0.00 | 0.00 | 0.00 | 17 | |
| 20260504191219 | 67 | 300 | 12.0 | 26.0 | 0.00 | 0.00 | 0.00 | 18 | |
| 20260504190719 | 66 | 303 | 11.0 | 24.0 | 0.00 | 0.00 | 0.00 | 20 | |
| 20260504190219 | 65 | 302 | 16.0 | 25.0 | 0.00 | 0.00 | 0.00 | 21 | |
| 20260504185719 | 66 | 334 | 16.0 | 25.0 | 0.00 | 0.00 | 0.00 | 21 | |
| 20260504185219 | 65 | 265 | 9.0 | 22.0 | 0.00 | 0.00 | 0.00 | 20 | |
| 20260504184719 | 65 | 326 | 8.0 | 28.0 | 0.00 | 0.00 | 0.00 | 20 | |
| 20260504184219 | 65 | 317 | 9.0 | 26.0 | 0.00 | 0.00 | 0.00 | 19 | |
| 20260504183719 | 65 | 302 | 6.0 | 24.0 | 0.00 | 0.00 | 0.00 | 20 | |
| 20260504183219 | 66 | 322 | 6.0 | 26.0 | 0.00 | 0.00 | 0.00 | 19 | |
| 20260504182719 | 65 | 267 | 3.0 | 36.0 | 0.00 | 0.00 | 0.00 | 18 | |
| 20260504182219 | 65 | 330 | 7.0 | 25.0 | 0.00 | 0.00 | 0.00 | 20 | |
| 20260504181719 | 65 | 198 | 5.0 | 31.0 | 0.00 | 0.00 | 0.00 | 17 | |
| 20260504181219 | 65 | 309 | 27.0 | 45.0 | 0.00 | 0.00 | 0.00 | 18 | |
| 20260504180719 | 65 | 198 | 3.0 | 27.0 | 0.00 | 0.00 | 0.00 | 17 | |
| 20260504180219 | 66 | 2 | 7.0 | 26.0 | 0.00 | 0.00 | 0.00 | 17 | |
| 20260504175719 | 66 | 324 | 12.0 | 29.0 | 0.00 | 0.00 | 0.00 | 18 | |
| 20260504175219 | 65 | 265 | 18.0 | 27.0 | 0.00 | 0.00 | 0.00 | 18 | |
| 20260504174719 | 65 | 310 | 8.0 | 37.0 | 0.00 | 0.00 | 0.00 | 20 | |
| 20260504174219 | 65 | 330 | 18.0 | 30.0 | 0.00 | 0.00 | 0.00 | 21 | |
| 20260504173719 | 65 | 299 | 11.0 | 29.0 | 0.00 | 0.00 | 0.00 | 21 | |
| 20260504173219 | 64 | 313 | 14.0 | 32.0 | 0.00 | 0.00 | 0.00 | 20 | |
| 20260504172719 | 65 | 275 | 12.0 | 27.0 | 0.00 | 0.00 | 0.00 | 22 | |
| 20260504172219 | 64 | 344 | 14.0 | 32.0 | 0.00 | 0.00 | 0.00 | 23 | |
| 20260504171719 | 64 | 285 | 6.0 | 37.0 | 0.00 | 0.00 | 0.00 | 24 |